Time;durP1;ratioP1;P1;durP2;ratioP2;P2;SDS_P1;SDS_P2;PMS_P1;PMS_P2;Temp;Humidity;BMP_temperature;BMP_pressure;BME280_temperature;BME280_humidity;BME280_pressure;Samples;Min_cycle;Max_cycle;Signal;HPM_P1;HPM_P2
2022/06/20 00:00:07;;;;;;;11.82;7.68;;;;;;;24.83;49.08;92359.63;2043926;70;20139;-75
2022/06/20 00:02:36;;;;;;;19.70;7.95;;;;;;;24.85;48.31;92358.88;2044718;70;20151;-74
2022/06/20 00:05:03;;;;;;;16.58;7.50;;;;;;;24.82;48.27;92363.19;2045044;70;20643;-74
2022/06/20 00:07:29;;;;;;;16.35;9.13;;;;;;;24.73;47.97;92371.09;2045135;70;20154;-74
2022/06/20 00:09:55;;;;;;;14.80;9.07;;;;;;;24.72;47.57;92386.19;2046741;70;20174;-74
2022/06/20 00:12:26;;;;;;;14.73;8.68;;;;;;;24.69;48.26;92373.94;2048587;70;20606;-73
2022/06/20 00:14:57;;;;;;;14.30;8.10;;;;;;;24.50;48.79;92384.69;2048559;70;20276;-74
2022/06/20 00:17:23;;;;;;;18.25;9.45;;;;;;;24.53;49.11;92380.38;2048195;70;20137;-75
2022/06/20 00:19:48;;;;;;;16.42;8.73;;;;;;;24.43;49.08;92377.47;2048343;70;20194;-75
2022/06/20 00:22:14;;;;;;;13.98;8.30;;;;;;;24.40;48.78;92373.13;2045243;70;20151;-74
2022/06/20 00:24:39;;;;;;;13.98;8.55;;;;;;;24.41;48.73;92377.44;2047925;70;20606;-75
2022/06/20 00:27:09;;;;;;;14.70;8.40;;;;;;;24.46;48.83;92376.03;2048444;69;20215;-75
2022/06/20 00:29:36;;;;;;;12.73;8.18;;;;;;;24.37;49.38;92376.72;2046941;70;20177;-75
2022/06/20 00:32:03;;;;;;;14.52;8.60;;;;;;;24.36;48.64;92375.97;2045017;70;20230;-74
2022/06/20 00:34:28;;;;;;;15.15;8.50;;;;;;;24.15;50.03;92371.56;2045279;70;20289;-75
2022/06/20 00:36:54;;;;;;;15.20;8.43;;;;;;;24.12;50.35;92370.81;2044578;70;20592;-75
2022/06/20 00:39:21;;;;;;;15.13;8.82;;;;;;;24.14;50.16;92367.94;2046100;70;20150;-74
2022/06/20 00:41:48;;;;;;;16.65;9.20;;;;;;;24.10;49.95;92365.06;2048468;70;20127;-72
2022/06/20 00:44:20;;;;;;;15.00;8.98;;;;;;;24.14;50.24;92361.47;2048460;70;20151;-75
2022/06/20 00:46:51;;;;;;;16.98;8.82;;;;;;;23.98;49.94;92359.25;2047581;70;20662;-75
2022/06/20 00:49:22;;;;;;;17.25;9.15;;;;;;;24.17;49.58;92351.44;2045203;70;20220;-74
2022/06/20 00:52:07;;;;;;;15.48;8.93;;;;;;;23.89;50.42;92340.53;2045233;70;20150;-74
2022/06/20 00:54:39;;;;;;;17.88;9.43;;;;;;;24.13;48.75;92345.66;2045070;70;20142;-76
2022/06/20 00:57:14;;;;;;;20.00;9.60;;;;;;;24.01;49.62;92355.69;2048664;70;20243;-75
2022/06/20 00:59:45;;;;;;;15.68;9.18;;;;;;;23.88;50.64;92359.91;2048259;70;20558;-74
2022/06/20 01:02:17;;;;;;;18.05;9.40;;;;;;;23.79;51.23;92364.91;2048367;70;20149;-74
2022/06/20 01:04:45;;;;;;;16.52;8.90;;;;;;;23.51;52.16;92365.41;2045340;70;20157;-74
2022/06/20 01:07:24;;;;;;;17.73;9.05;;;;;;;23.62;51.50;92368.34;2048179;70;20186;-74
2022/06/20 01:09:55;;;;;;;18.20;8.82;;;;;;;23.61;51.17;92361.88;2046133;70;20208;-74
2022/06/20 01:12:24;;;;;;;20.77;9.93;;;;;;;23.60;51.03;92374.81;2045303;70;20200;-74
2022/06/20 01:14:49;;;;;;;14.85;9.02;;;;;;;23.78;50.07;92386.44;2044850;70;20252;-74
2022/06/20 01:17:32;;;;;;;14.50;9.85;;;;;;;23.62;50.98;92383.41;2045037;70;20155;-74
2022/06/20 01:20:04;;;;;;;14.90;9.07;;;;;;;23.49;51.95;92384.75;2044803;70;20599;-75
2022/06/20 01:22:43;;;;;;;16.13;9.93;;;;;;;23.50;51.37;92389.06;2044894;70;20258;-72
2022/06/20 01:25:42;;;;;;;15.50;9.13;;;;;;;23.49;51.32;92387.63;2044793;70;20268;-72
2022/06/20 01:28:10;;;;;;;17.33;8.68;;;;;;;23.56;49.91;92398.47;2044908;70;20631;-72
2022/06/20 01:30:41;;;;;;;14.68;9.75;;;;;;;23.48;50.98;92392.66;2044903;70;20242;-72
2022/06/20 01:33:06;;;;;;;20.08;9.50;;;;;;;23.28;51.51;92390.34;2044795;70;20149;-72
2022/06/20 01:38:19;;;;;;;12.35;8.60;;;;;;;23.43;50.95;92382.56;2048636;70;20214;-74
2022/06/20 01:43:33;;;;;;;13.57;7.70;;;;;;;23.45;51.79;92382.56;2045636;70;20264;-73
2022/06/20 01:46:12;;;;;;;15.25;8.35;;;;;;;23.39;50.78;92385.41;2045715;70;20260;-73
2022/06/20 01:48:45;;;;;;;14.40;9.13;;;;;;;22.58;54.05;92388.19;2045741;69;20150;-73
2022/06/20 01:51:19;;;;;;;18.27;9.45;;;;;;;23.00;52.72;92390.06;2045220;70;20254;-74
2022/06/20 01:53:46;;;;;;;16.98;9.30;;;;;;;23.01;52.33;92391.53;2045300;70;20182;-72
2022/06/20 01:56:12;;;;;;;16.20;9.48;;;;;;;23.03;51.96;92388.66;2045505;70;20151;-73
2022/06/20 01:58:46;;;;;;;18.60;10.23;;;;;;;23.07;52.35;92395.19;2045473;70;20171;-73
2022/06/20 02:01:14;;;;;;;18.95;9.25;;;;;;;23.15;51.84;92383.06;2048618;70;20250;-73
2022/06/20 02:03:43;;;;;;;12.45;8.80;;;;;;;23.32;51.03;92381.78;2048537;70;20152;-73
2022/06/20 02:06:13;;;;;;;14.05;9.65;;;;;;;23.15;51.28;92377.31;2045116;70;20276;-73
2022/06/20 02:08:41;;;;;;;17.50;9.18;;;;;;;23.24;50.26;92380.97;2045433;70;20239;-73
2022/06/20 02:11:16;;;;;;;17.27;9.43;;;;;;;23.41;48.86;92378.94;2048558;70;20158;-73
2022/06/20 02:13:46;;;;;;;13.07;9.02;;;;;;;23.13;50.32;92382.31;2048694;70;20123;-73
2022/06/20 02:16:16;;;;;;;15.80;8.45;;;;;;;23.43;49.00;92376.09;2048773;70;20150;-73
2022/06/20 02:18:44;;;;;;;16.02;8.35;;;;;;;23.41;49.07;92381.81;2048310;70;20224;-73
2022/06/20 02:21:17;;;;;;;13.50;9.02;;;;;;;23.51;47.60;92384.78;2048507;70;20159;-73
2022/06/20 02:23:47;;;;;;;34.22;8.98;;;;;;;23.41;48.13;92379.66;2045175;70;20625;-72
2022/06/20 02:26:15;;;;;;;13.15;9.23;;;;;;;23.29;48.74;92382.44;2048564;70;20572;-72
2022/06/20 02:29:23;;;;;;;14.00;9.63;;;;;;;23.27;49.48;92377.41;2048523;70;20220;-72
2022/06/20 02:31:55;;;;;;;17.35;8.60;;;;;;;23.29;49.82;92388.91;2034472;70;20211;-72
2022/06/20 02:34:24;;;;;;;12.75;9.07;;;;;;;23.16;50.05;92392.38;2035590;70;20156;-72
2022/06/20 02:36:50;;;;;;;16.42;9.15;;;;;;;22.96;50.64;92395.78;2037765;70;20238;-73
2022/06/20 02:39:18;;;;;;;16.13;9.27;;;;;;;23.06;50.86;92393.72;2037705;70;20181;-73
2022/06/20 02:41:49;;;;;;;17.75;9.25;;;;;;;23.13;49.42;92388.03;2035460;70;20749;-76
2022/06/20 02:44:21;;;;;;;17.70;9.00;;;;;;;22.97;50.09;92392.22;2038282;70;20322;-74
2022/06/20 02:46:48;;;;;;;18.48;9.73;;;;;;;23.21;48.94;92385.97;2038295;70;20152;-74
2022/06/20 02:49:17;;;;;;;15.48;8.80;;;;;;;22.80;49.74;92387.69;2037787;70;20604;-74
2022/06/20 02:51:50;;;;;;;16.38;9.70;;;;;;;23.04;49.71;92390.09;2035494;70;20139;-75
2022/06/20 02:54:19;;;;;;;16.13;9.25;;;;;;;22.99;49.79;92394.38;2038312;70;20786;-77
2022/06/20 02:56:54;;;;;;;12.15;9.00;;;;;;;23.05;49.26;92388.72;2038362;70;20190;-73
2022/06/20 02:59:27;;;;;;;15.73;9.15;;;;;;;22.88;49.91;92384.91;2038273;70;20596;-73
2022/06/20 03:02:05;;;;;;;14.00;9.20;;;;;;;22.94;50.01;92384.28;2035648;70;20155;-74
2022/06/20 03:04:34;;;;;;;17.80;9.93;;;;;;;22.45;51.42;92378.72;2037598;70;20683;-74
2022/06/20 03:07:06;;;;;;;14.35;9.38;;;;;;;22.48;51.69;92382.34;2041527;70;20508;-74
2022/06/20 03:09:37;;;;;;;16.40;9.27;;;;;;;22.47;51.60;92378.03;2048032;70;20201;-73
2022/06/20 03:12:05;;;;;;;14.38;9.13;;;;;;;22.71;50.93;92377.56;2048832;70;20234;-74
2022/06/20 03:14:59;;;;;;;17.70;9.10;;;;;;;22.67;51.42;92381.09;2048919;70;20150;-74
2022/06/20 03:17:24;;;;;;;21.92;9.50;;;;;;;22.61;51.67;92386.78;2048905;70;20226;-72
2022/06/20 03:19:54;;;;;;;13.35;9.25;;;;;;;22.72;49.75;92388.31;2047810;70;20170;-73
2022/06/20 03:22:26;;;;;;;17.15;9.40;;;;;;;22.58;51.45;92388.19;2049072;70;20799;-73
2022/06/20 03:24:53;;;;;;;14.32;8.95;;;;;;;22.63;51.45;92386.06;2048818;70;20143;-73
2022/06/20 03:27:24;;;;;;;15.13;9.32;;;;;;;22.28;51.71;92379.94;2048914;70;20249;-73
2022/06/20 03:29:54;;;;;;;15.88;8.93;;;;;;;22.53;50.35;92381.66;2048864;70;20326;-72
2022/06/20 03:32:23;;;;;;;17.40;8.90;;;;;;;22.61;49.69;92386.78;2048956;70;20163;-71
2022/06/20 03:34:49;;;;;;;15.73;9.43;;;;;;;22.71;50.31;92383.31;2048465;70;20257;-73
2022/06/20 03:37:15;;;;;;;14.80;9.20;;;;;;;22.67;51.37;92383.25;2048445;70;20173;-72
2022/06/20 03:39:42;;;;;;;14.98;8.77;;;;;;;22.58;51.62;92385.31;2048003;70;20146;-72
2022/06/20 03:42:08;;;;;;;13.18;9.05;;;;;;;22.51;52.34;92390.25;2045605;70;20234;-72
2022/06/20 03:44:39;;;;;;;17.50;9.00;;;;;;;22.56;52.69;92393.91;2045518;70;20169;-74
2022/06/20 03:47:18;;;;;;;15.82;9.52;;;;;;;22.52;52.11;92397.44;2045494;70;20181;-73
2022/06/20 03:49:51;;;;;;;13.55;9.85;;;;;;;22.10;52.81;92409.09;2042688;70;20620;-72
2022/06/20 03:52:25;;;;;;;19.95;9.48;;;;;;;22.23;53.54;92412.88;2045674;70;20154;-73
2022/06/20 03:55:07;;;;;;;14.88;9.90;;;;;;;22.22;53.27;92414.25;2045382;70;20151;-73
2022/06/20 03:57:46;;;;;;;16.63;10.20;;;;;;;22.13;53.52;92407.72;2042416;70;20151;-72
2022/06/20 04:00:18;;;;;;;15.50;9.82;;;;;;;22.26;53.24;92411.44;2046445;70;20256;-72
2022/06/20 04:02:55;;;;;;;15.63;9.43;;;;;;;22.28;52.78;92408.63;2045327;70;20143;-74
2022/06/20 04:05:50;;;;;;;18.05;9.52;;;;;;;22.33;52.61;92407.25;2048599;70;20211;-74
2022/06/20 04:11:25;;;;;;;16.80;9.52;;;;;;;22.40;50.97;92411.63;2046140;70;20714;-72
2022/06/20 04:14:02;;;;;;;14.48;9.52;;;;;;;22.43;52.41;92412.38;2042289;70;20157;-72
2022/06/20 04:16:43;;;;;;;13.35;9.23;;;;;;;22.47;51.00;92418.19;2045577;70;20174;-72
2022/06/20 04:19:08;;;;;;;20.48;10.18;;;;;;;22.45;50.91;92426.75;2045577;70;20219;-73
2022/06/20 04:21:55;;;;;;;13.52;9.73;;;;;;;22.48;51.50;92431.09;2048367;70;20159;-72
2022/06/20 04:24:37;;;;;;;15.07;9.77;;;;;;;22.52;51.96;92434.72;2048764;70;20146;-72
2022/06/20 04:27:42;;;;;;;16.83;9.40;;;;;;;22.56;51.73;92440.53;2045591;70;20169;-72
2022/06/20 04:30:25;;;;;;;15.57;9.65;;;;;;;22.36;52.12;92443.16;2048557;70;20175;-72
2022/06/20 04:32:58;;;;;;;19.55;10.52;;;;;;;22.42;52.62;92442.50;2048758;70;20203;-72
2022/06/20 04:35:35;;;;;;;19.90;10.18;;;;;;;22.42;52.38;92442.50;2044895;70;20154;-73
2022/06/20 04:38:29;;;;;;;19.05;10.13;;;;;;;22.19;53.54;92438.63;2045722;70;20146;-73
2022/06/20 04:41:10;;;;;;;15.05;10.00;;;;;;;22.23;51.95;92438.66;2045586;70;20141;-73
2022/06/20 04:43:58;;;;;;;13.18;10.02;;;;;;;22.39;52.05;92444.59;2042071;70;20205;-73
2022/06/20 04:46:38;;;;;;;20.70;10.48;;;;;;;22.42;53.17;92451.09;2047044;70;20162;-72
2022/06/20 04:49:03;;;;;;;18.98;9.80;;;;;;;22.50;52.48;92446.19;2048983;70;20512;-72
2022/06/20 04:51:39;;;;;;;19.77;9.25;;;;;;;22.54;50.22;92434.03;2046029;69;20623;-72
2022/06/20 04:54:12;;;;;;;16.55;10.13;;;;;;;22.65;50.84;92434.88;2045507;70;20147;-72
2022/06/20 04:56:39;;;;;;;12.60;9.52;;;;;;;22.60;51.23;92436.97;2045632;70;20155;-73
2022/06/20 04:59:11;;;;;;;16.88;9.70;;;;;;;22.64;51.66;92433.44;2045657;70;20235;-73
2022/06/20 05:01:37;;;;;;;15.55;9.50;;;;;;;22.57;53.54;92426.91;2047925;70;20162;-72
2022/06/20 05:04:13;;;;;;;16.52;9.70;;;;;;;22.48;51.69;92431.09;2048719;70;20232;-73
2022/06/20 05:06:40;;;;;;;20.30;9.80;;;;;;;22.64;51.45;92437.03;2048823;70;20241;-73
2022/06/20 05:09:29;;;;;;;15.25;10.02;;;;;;;22.66;49.92;92436.31;2048755;70;20561;-75
2022/06/20 05:12:21;;;;;;;16.98;9.85;;;;;;;22.86;49.98;92430.09;2046633;70;20151;-73
2022/06/20 05:14:50;;;;;;;17.33;10.18;;;;;;;22.76;51.30;92422.09;2048993;70;20154;-75
2022/06/20 05:17:24;;;;;;;18.50;10.13;;;;;;;22.62;50.31;92431.25;2047466;70;20159;-73
2022/06/20 05:19:54;;;;;;;17.25;9.45;;;;;;;22.85;49.28;92432.22;2045681;70;20536;-74
2022/06/20 05:22:26;;;;;;;17.08;9.50;;;;;;;22.85;51.42;92429.34;2045538;70;20177;-75
2022/06/20 05:24:54;;;;;;;21.73;10.10;;;;;;;23.02;50.54;92430.28;2045409;70;20146;-74
2022/06/20 05:27:27;;;;;;;14.13;9.23;;;;;;;23.04;49.46;92430.28;2045621;70;20178;-73
2022/06/20 05:29:55;;;;;;;14.60;9.38;;;;;;;23.06;50.34;92431.06;2045832;70;20186;-73
2022/06/20 05:32:33;;;;;;;16.75;9.68;;;;;;;23.20;50.71;92439.09;2048384;70;20616;-73
2022/06/20 05:35:05;;;;;;;18.00;10.38;;;;;;;23.15;50.47;92429.00;2048764;70;20620;-72
2022/06/20 05:37:52;;;;;;;19.58;10.52;;;;;;;23.23;49.47;92429.06;2045507;70;20170;-73
2022/06/20 05:40:23;;;;;;;19.55;10.02;;;;;;;23.11;49.31;92434.69;2047662;70;20147;-72
2022/06/20 05:42:49;;;;;;;18.48;10.25;;;;;;;23.13;49.43;92428.97;2042272;70;20159;-73
2022/06/20 05:45:21;;;;;;;19.83;9.70;;;;;;;23.38;49.70;92427.03;2042336;70;20626;-73
2022/06/20 05:47:51;;;;;;;18.67;10.18;;;;;;;23.45;51.68;92433.56;2047643;70;20150;-74
2022/06/20 05:50:34;;;;;;;17.80;10.05;;;;;;;23.58;51.04;92427.22;2045012;70;20584;-73
2022/06/20 05:53:03;;;;;;;20.27;10.05;;;;;;;23.46;51.78;92430.00;2048764;70;20228;-73
2022/06/20 05:55:43;;;;;;;18.35;10.05;;;;;;;23.59;49.83;92430.78;2048617;70;20216;-74
2022/06/20 05:58:16;;;;;;;17.05;10.15;;;;;;;23.91;50.34;92426.75;2048727;70;20162;-73
2022/06/20 06:00:44;;;;;;;17.42;9.48;;;;;;;24.05;49.62;92429.72;2047040;70;20155;-72
2022/06/20 06:03:15;;;;;;;13.48;9.65;;;;;;;24.16;52.85;92436.28;2048697;70;20256;-74
2022/06/20 06:05:56;;;;;;;18.15;10.43;;;;;;;23.76;50.12;92435.28;2046515;70;20228;-74
2022/06/20 06:08:25;;;;;;;18.15;10.43;;;;;;;24.05;50.57;92421.84;2045391;70;20142;-73
2022/06/20 06:11:02;;;;;;;20.65;10.93;;;;;;;24.12;49.95;92422.59;2044979;70;20166;-74
2022/06/20 06:13:33;;;;;;;18.48;11.38;;;;;;;24.13;48.78;92409.66;2045370;70;20135;-75
2022/06/20 06:19:00;;;;;;;17.58;10.00;;;;;;;24.48;49.77;92407.69;2045382;70;20146;-73
2022/06/20 06:21:26;;;;;;;16.98;9.98;;;;;;;24.53;50.75;92408.44;2047603;70;20158;-74
2022/06/20 06:23:52;;;;;;;15.77;9.57;;;;;;;24.32;51.31;92410.47;2048884;70;20146;-75
2022/06/20 06:26:18;;;;;;;18.38;9.75;;;;;;;24.43;49.97;92402.66;2048868;70;20150;-74
2022/06/20 06:28:46;;;;;;;16.33;9.57;;;;;;;24.23;53.50;92412.56;2049111;70;20181;-73
2022/06/20 06:31:36;;;;;;;16.38;9.93;;;;;;;24.47;52.57;92405.53;2047186;70;20689;-73
2022/06/20 06:34:12;;;;;;;15.38;10.10;;;;;;;24.61;52.35;92413.50;2042772;70;20203;-75
2022/06/20 06:36:45;;;;;;;21.80;9.98;;;;;;;24.71;51.61;92404.91;2045858;70;20209;-75
2022/06/20 06:39:20;;;;;;;15.30;10.13;;;;;;;24.42;52.65;92404.06;2046017;70;20170;-73
2022/06/20 06:41:49;;;;;;;18.95;9.98;;;;;;;24.35;50.28;92395.38;2046374;70;20173;-74
2022/06/20 06:44:19;;;;;;;21.00;10.50;;;;;;;24.57;49.94;92397.66;2045816;70;20143;-73
2022/06/20 06:46:48;;;;;;;13.73;9.98;;;;;;;24.63;53.81;92394.09;2045964;70;20154;-74
2022/06/20 06:49:19;;;;;;;17.77;10.23;;;;;;;24.81;49.55;92391.25;2045842;70;20274;-76
2022/06/20 06:51:55;;;;;;;11.90;9.32;;;;;;;24.95;49.10;92390.56;2048349;70;20154;-75
2022/06/20 06:54:51;;;;;;;11.18;8.70;;;;;;;25.04;49.39;92389.16;2047563;70;20612;-74
2022/06/20 06:57:41;;;;;;;15.43;9.00;;;;;;;25.04;53.94;92394.91;2045800;70;20205;-75
2022/06/20 07:00:07;;;;;;;15.70;9.73;;;;;;;25.05;50.76;92396.34;2048825;69;20146;-78
2022/06/20 07:02:38;;;;;;;15.00;9.27;;;;;;;25.16;50.65;92390.66;2048668;70;20146;-76
2022/06/20 07:05:11;;;;;;;18.30;9.40;;;;;;;25.24;50.12;92393.53;2048767;70;20150;-77
2022/06/20 07:07:40;;;;;;;16.05;9.38;;;;;;;25.31;50.38;92395.00;2048375;70;20149;-77
2022/06/20 07:10:09;;;;;;;12.95;9.57;;;;;;;25.29;49.59;92380.56;2047993;70;20150;-75
2022/06/20 07:12:44;;;;;;;14.63;9.40;;;;;;;25.34;51.35;92382.03;2048729;70;20241;-74
2022/06/20 07:15:19;;;;;;;14.68;9.93;;;;;;;25.21;48.69;92386.34;2047920;70;20170;-74
2022/06/20 07:18:04;;;;;;;18.67;10.20;;;;;;;25.34;48.97;92382.03;2049035;70;20329;-76
2022/06/20 07:20:35;;;;;;;18.25;9.63;;;;;;;25.43;49.61;92379.84;2042579;70;20171;-76
2022/06/20 07:23:05;;;;;;;29.88;11.10;;;;;;;25.48;49.13;92372.69;2045781;70;20147;-76
2022/06/20 07:25:35;;;;;;;17.73;9.70;;;;;;;25.49;48.00;92374.81;2042523;70;20147;-75
2022/06/20 07:28:10;;;;;;;15.02;9.68;;;;;;;25.57;48.64;92374.13;2045704;70;20141;-74
2022/06/20 07:30:46;;;;;;;17.70;9.23;;;;;;;25.74;49.41;92374.81;2044939;70;20241;-75
2022/06/20 07:33:23;;;;;;;16.92;9.75;;;;;;;25.80;50.38;92371.97;2048613;70;20223;-72
2022/06/20 07:35:54;;;;;;;12.80;9.48;;;;;;;25.90;49.67;92371.94;2046599;70;20151;-75
2022/06/20 07:38:31;;;;;;;16.02;10.02;;;;;;;25.98;50.12;92368.31;2047280;70;20210;-76
2022/06/20 07:41:25;;;;;;;13.70;9.63;;;;;;;26.10;50.48;92363.22;2046484;70;20242;-73
2022/06/20 07:44:06;;;;;;;18.00;9.77;;;;;;;26.17;50.20;92363.25;2045899;70;20158;-77
2022/06/20 07:47:04;;;;;;;14.45;9.88;;;;;;;26.25;48.76;92366.06;2048050;70;20217;-73
2022/06/20 07:49:37;;;;;;;16.25;9.52;;;;;;;26.35;49.80;92352.34;2035096;70;20201;-75
2022/06/20 07:52:14;;;;;;;18.15;9.48;;;;;;;26.50;49.11;92355.22;2038251;70;20191;-74
2022/06/20 07:54:44;;;;;;;20.88;9.90;;;;;;;26.55;49.80;92360.22;2037848;70;20231;-76
2022/06/20 07:57:25;;;;;;;15.43;8.93;;;;;;;26.68;49.65;92369.56;2037668;69;20335;-76
2022/06/20 08:00:04;;;;;;;16.50;9.18;;;;;;;26.75;48.55;92364.47;2037978;70;20155;-76
2022/06/20 08:02:33;;;;;;;20.73;9.77;;;;;;;26.64;45.43;92358.03;2037752;70;20140;-77
2022/06/20 08:05:00;;;;;;;19.90;9.32;;;;;;;27.01;43.43;92360.72;2038141;70;20671;-75
2022/06/20 08:07:40;;;;;;;15.85;8.23;;;;;;;27.10;43.26;92359.97;2038002;70;20164;-76
2022/06/20 08:10:20;;;;;;;17.25;8.98;;;;;;;27.06;44.45;92359.25;2037841;70;20751;-75
2022/06/20 08:12:57;;;;;;;20.60;8.70;;;;;;;27.28;42.52;92364.19;2037716;70;20251;-75
2022/06/20 08:15:26;;;;;;;15.85;8.15;;;;;;;27.50;43.37;92360.41;2037227;70;20147;-77
2022/06/20 08:17:53;;;;;;;15.15;8.57;;;;;;;27.65;41.14;92358.84;2038241;70;20187;-76
2022/06/20 08:20:21;;;;;;;17.25;8.05;;;;;;;27.90;40.34;92368.03;2037796;70;20151;-77
2022/06/20 08:22:59;;;;;;;16.45;8.68;;;;;;;28.15;41.07;92365.63;2038365;69;20238;-76
2022/06/20 08:25:49;;;;;;;17.73;8.13;;;;;;;28.38;39.35;92369.03;2039273;70;20155;-77
2022/06/20 08:28:21;;;;;;;15.23;7.95;;;;;;;29.03;38.93;92361.75;2043798;70;20151;-76
2022/06/20 08:31:04;;;;;;;16.38;7.40;;;;;;;29.50;37.05;92358.16;2045665;70;20139;-77
2022/06/20 08:33:56;;;;;;;21.02;7.25;;;;;;;30.48;34.79;92363.03;2045476;70;20147;-76
2022/06/20 08:36:30;;;;;;;13.52;7.07;;;;;;;30.35;36.35;92362.53;2045704;70;20154;-75
2022/06/20 08:39:06;;;;;;;18.35;7.55;;;;;;;30.68;35.03;92361.91;2045552;70;20158;-76
2022/06/20 08:41:51;;;;;;;17.27;7.38;;;;;;;30.85;35.14;92368.13;2047096;70;20158;-75
2022/06/20 08:44:36;;;;;;;15.13;7.55;;;;;;;31.24;35.15;92359.28;2045516;70;20190;-76
2022/06/20 08:47:19;;;;;;;15.77;6.75;;;;;;;31.17;34.45;92360.22;2046194;70;20584;-76
2022/06/20 08:50:09;;;;;;;17.23;7.30;;;;;;;31.13;32.50;92353.00;2047350;70;20150;-76
2022/06/20 08:53:00;;;;;;;13.73;6.93;;;;;;;31.76;31.27;92355.97;2048264;70;20162;-77
2022/06/20 08:55:49;;;;;;;10.57;6.35;;;;;;;31.86;30.89;92350.63;2048636;70;20146;-77
2022/06/20 08:58:45;;;;;;;19.80;6.63;;;;;;;32.39;31.68;92345.66;2048679;70;20154;-76
2022/06/20 09:01:32;;;;;;;15.70;6.90;;;;;;;32.69;29.63;92344.09;2046126;70;20183;-77
2022/06/20 09:04:14;;;;;;;16.02;6.88;;;;;;;33.14;31.31;92342.84;2047805;70;20193;-81
2022/06/20 09:07:22;;;;;;;13.48;6.80;;;;;;;33.25;29.65;92341.03;2048674;70;20635;-79
2022/06/20 09:10:19;;;;;;;15.52;6.20;;;;;;;33.48;28.58;92338.16;2041192;70;20182;-81
2022/06/20 09:13:13;;;;;;;9.20;5.97;;;;;;;33.57;27.95;92332.78;2045256;70;20147;-77
2022/06/20 09:15:39;;;;;;;13.82;6.78;;;;;;;33.52;29.58;92343.16;2045245;70;20147;-76
2022/06/20 09:18:19;;;;;;;13.48;6.43;;;;;;;33.87;30.99;92343.50;2046706;70;20251;-77
2022/06/20 09:20:52;;;;;;;14.32;6.13;;;;;;;34.06;30.33;92337.06;2045299;70;20242;-77
2022/06/20 09:23:46;;;;;;;12.43;5.90;;;;;;;34.18;27.36;92339.59;2045292;70;20147;-75
2022/06/20 09:26:17;;;;;;;15.02;6.00;;;;;;;34.75;29.00;92331.75;2045569;70;20166;-77
2022/06/20 09:29:21;;;;;;;16.48;6.70;;;;;;;33.68;28.62;92325.16;2045280;70;20604;-76
2022/06/20 09:32:20;;;;;;;17.40;5.90;;;;;;;34.04;29.17;92331.28;2047208;70;20617;-76
2022/06/20 09:35:24;;;;;;;11.93;5.40;;;;;;;34.63;28.84;92318.28;2039970;70;20201;-77
2022/06/20 09:38:09;;;;;;;15.40;5.85;;;;;;;34.60;27.95;92319.88;2031362;70;20141;-78
2022/06/20 09:40:47;;;;;;;20.00;5.88;;;;;;;34.52;26.96;92317.25;2031526;70;20239;-77
2022/06/20 09:43:21;;;;;;;11.52;5.90;;;;;;;34.49;26.64;92307.13;2031687;70;20132;-77
2022/06/20 09:45:58;;;;;;;18.63;5.97;;;;;;;35.12;27.96;92304.81;2031422;70;20156;-78
2022/06/20 09:48:35;;;;;;;16.58;6.22;;;;;;;34.81;26.70;92299.38;2028485;70;20247;-78
2022/06/20 09:51:09;;;;;;;16.38;5.65;;;;;;;35.04;25.96;92293.44;2031662;70;20156;-78
2022/06/20 09:53:53;;;;;;;11.73;5.85;;;;;;;35.11;25.67;92299.75;2031571;70;20633;-78
2022/06/20 09:56:31;;;;;;;17.02;5.97;;;;;;;35.21;26.65;92296.44;2031151;70;20187;-77
2022/06/20 09:59:30;;;;;;;16.98;5.70;;;;;;;35.36;26.22;92294.38;2031766;70;20143;-79
2022/06/20 10:02:13;;;;;;;12.57;5.97;;;;;;;35.16;25.33;92294.47;2035009;70;20238;-77
2022/06/20 10:04:50;;;;;;;12.20;5.65;;;;;;;35.08;24.57;92289.63;2046487;70;20145;-79
2022/06/20 10:07:46;;;;;;;15.63;5.90;;;;;;;34.54;25.35;92284.31;2046898;70;20147;-80
2022/06/20 10:10:24;;;;;;;13.02;5.75;;;;;;;35.74;24.99;92281.94;2045824;70;20139;-77
2022/06/20 10:12:55;;;;;;;15.65;6.50;;;;;;;35.30;25.21;92277.06;2046011;70;20181;-78
2022/06/20 10:15:51;;;;;;;14.40;5.72;;;;;;;36.52;25.34;92279.41;2047597;70;20158;-79
2022/06/20 10:18:16;;;;;;;17.15;5.97;;;;;;;36.11;25.93;92272.38;2045852;70;20242;-80
2022/06/20 10:20:56;;;;;;;14.55;6.07;;;;;;;36.77;25.32;92279.06;2045956;70;20552;-80
2022/06/20 10:23:28;;;;;;;15.00;5.93;;;;;;;36.76;25.16;92269.56;2046158;70;20147;-78
2022/06/20 10:26:25;;;;;;;11.23;5.93;;;;;;;37.70;25.57;92264.50;2047256;70;20155;-77
2022/06/20 10:29:06;;;;;;;14.27;5.60;;;;;;;37.31;24.29;92266.34;2049158;70;20181;-79
2022/06/20 10:31:50;;;;;;;18.13;5.82;;;;;;;37.97;24.51;92263.91;2049206;70;20142;-76
2022/06/20 10:34:53;;;;;;;13.20;5.50;;;;;;;38.39;24.14;92264.00;2048496;70;20187;-78
2022/06/20 10:37:25;;;;;;;15.90;5.45;;;;;;;38.60;22.00;92261.44;2047903;70;20153;-78
2022/06/20 10:40:01;;;;;;;18.00;5.82;;;;;;;39.51;21.81;92255.09;2048958;70;20178;-79
2022/06/20 10:42:54;;;;;;;12.23;5.32;;;;;;;39.39;22.13;92255.78;2045625;70;20234;-76
2022/06/20 10:45:32;;;;;;;13.30;5.00;;;;;;;39.58;21.85;92258.41;2047041;70;20225;-77
2022/06/20 10:48:06;;;;;;;14.32;5.63;;;;;;;38.70;21.40;92250.66;2048794;70;20255;-78
2022/06/20 10:50:32;;;;;;;13.55;4.95;;;;;;;38.84;23.35;92252.88;2048763;70;20150;-75
2022/06/20 10:53:33;;;;;;;11.80;5.13;;;;;;;39.05;22.00;92255.44;2048025;70;20620;-75
2022/06/20 10:56:29;;;;;;;13.95;5.25;;;;;;;39.01;21.47;92258.59;2045900;70;20139;-76
2022/06/20 10:59:19;;;;;;;15.00;5.57;;;;;;;39.84;21.84;92259.88;2048831;70;20149;-76
2022/06/20 11:01:56;;;;;;;13.00;5.00;;;;;;;41.98;20.28;92272.72;2048862;70;20150;-76
2022/06/20 11:05:04;;;;;;;17.25;5.40;;;;;;;41.82;18.86;92279.69;2048585;70;20317;-76
2022/06/20 11:07:52;;;;;;;13.25;5.00;;;;;;;39.80;21.22;92268.22;2046020;70;20175;-77
2022/06/20 11:10:46;;;;;;;18.73;5.30;;;;;;;41.81;20.78;92264.19;2041956;70;20677;-75
2022/06/20 11:13:24;;;;;;;16.30;5.10;;;;;;;44.10;17.49;92269.19;2045432;70;20215;-75
2022/06/20 11:16:03;;;;;;;13.25;5.40;;;;;;;44.18;17.65;92277.47;2045343;70;20206;-76
2022/06/20 11:18:37;;;;;;;16.40;5.15;;;;;;;46.91;16.23;92275.97;2045514;70;20147;-75
2022/06/20 11:21:29;;;;;;;16.02;5.13;;;;;;;47.09;16.18;92271.44;2047702;70;20176;-75
2022/06/20 11:24:24;;;;;;;12.35;4.90;;;;;;;48.23;15.32;92266.69;2048911;70;20212;-73
2022/06/20 11:27:24;;;;;;;15.40;4.78;;;;;;;48.41;15.22;92269.63;2048466;70;20251;-75
2022/06/20 11:30:18;;;;;;;17.45;5.00;;;;;;;48.55;15.07;92277.25;2048766;70;20147;-75
2022/06/20 11:33:05;;;;;;;16.20;4.63;;;;;;;50.24;14.39;92288.19;2048742;70;20138;-75
2022/06/20 11:35:35;;;;;;;19.02;4.95;;;;;;;46.85;15.58;92268.25;2046746;70;20253;-75
2022/06/20 11:38:28;;;;;;;16.10;5.18;;;;;;;47.99;14.44;92293.44;2045404;70;20179;-74
2022/06/20 11:41:14;;;;;;;18.67;4.80;;;;;;;46.62;16.18;92272.41;2045282;70;20150;-73
2022/06/20 11:43:52;;;;;;;11.55;4.88;;;;;;;45.85;16.51;92275.78;2045603;70;20183;-77
2022/06/20 11:46:28;;;;;;;12.38;4.72;;;;;;;46.80;15.97;92273.16;2045889;70;20157;-75
2022/06/20 11:48:54;;;;;;;14.43;4.97;;;;;;;46.58;15.74;92281.69;2047173;70;20159;-75
2022/06/20 11:51:29;;;;;;;14.32;5.07;;;;;;;46.82;15.54;92270.00;2045634;70;20178;-74
2022/06/20 11:53:57;;;;;;;12.20;4.82;;;;;;;50.47;13.95;92283.66;2045318;70;20289;-75
2022/06/20 11:56:41;;;;;;;16.48;4.75;;;;;;;51.98;12.90;92276.59;2045909;70;20247;-74
2022/06/20 11:59:34;;;;;;;12.55;4.45;;;;;;;50.82;13.30;92280.22;2045533;70;20134;-74
2022/06/20 12:02:40;;;;;;;14.43;4.82;;;;;;;49.41;13.88;92290.22;2048997;70;20682;-75
2022/06/20 12:05:18;;;;;;;11.07;4.68;;;;;;;44.59;17.26;92266.22;2047530;70;20263;-75
2022/06/20 12:08:01;;;;;;;18.95;4.70;;;;;;;41.76;19.45;92256.41;2047822;70;20146;-74
2022/06/20 12:10:39;;;;;;;15.85;5.18;;;;;;;40.96;20.25;92248.91;2048583;70;20155;-74
2022/06/20 12:13:13;;;;;;;10.93;5.15;;;;;;;41.22;20.69;92255.41;2048906;70;20151;-74
2022/06/20 12:15:54;;;;;;;17.10;5.15;;;;;;;41.15;20.23;92255.09;2047171;70;20713;-76
2022/06/20 12:18:31;;;;;;;13.73;4.82;;;;;;;39.86;22.91;92259.75;2045590;70;20147;-74